Overview Statistics Trail Chart Weather Telemetry Raw packets
 

This is the latest recevied weather packets stored in our database for station/object VE3DVC. If no packets are shown the sender has not sent any weather packets the latest 10 day(s).

<< 15 16 17 18 19 20 21 >>
Time Temp. Humidity Pressure Rain* Wind** Luminosity Snow
1788397815 21.11° C 91% 1013.1 hPa 0 mm - - -
1788397095 21.11° C 92% 1013.7 hPa 0 mm - - -
1788396375 21.11° C 92% 1013.4 hPa 0 mm - - -
1788393406 20.56° C 92% 1013.7 hPa 0 mm - - -
1788392685 20° C 92% 1013.7 hPa 0 mm - - -
1788391965 20° C 92% 1013.5 hPa 0 mm - - -
1788391245 20.56° C 91% 1013.3 hPa 0 mm - - -
1788388805 24.44° C 78% 1014 hPa 0 mm - - -
1788388085 26.11° C 83% 1014.2 hPa 0 mm - - -
1788387365 26.67° C 88% 1013.2 hPa 0 mm - - -
1788386645 26.67° C 87% 1013.2 hPa 0 mm - - -
1788385925 26.67° C 88% 1012.5 hPa 0 mm - - -
1788385205 26.67° C 88% 1011.7 hPa 0 mm - - -
1788382519 27.22° C 88% 1012.2 hPa 0 mm - - -
1788381799 27.22° C 88% 1012.6 hPa 0 mm - - -
1788379376 28.89° C 85% 1013.6 hPa 0 mm - - -
1788378657 28.89° C 84% 1014 hPa 0 mm - - -
1788377937 29.44° C 83% 1014.2 hPa 0 mm - - -
1788377217 29.44° C 84% 1014.2 hPa 0 mm - - -
1788376497 29.44° C 84% 1014 hPa 0 mm - - -
1788375777 29.44° C 84% 1014.2 hPa 0 mm - - -
1788375057 29.44° C 87% 1013.9 hPa 0 mm - - -
1788374337 28.89° C 87% 1014 hPa 0 mm - - -
1788373617 28.89° C 88% 1013.9 hPa 0 mm - - -
1788372897 28.33° C 89% 1014.1 hPa 0 mm - - -

* Rain latest hour (hover to see other rain measurements)
** Current wind speed in m/s (hover to see current wind gust speed)